createdAt,value
2018-09-23T00:00:04.037Z,69.07959
2018-09-23T00:01:04.144Z,69.378662
2018-09-23T00:02:04.224Z,69.445801
2018-09-23T00:03:04.303Z,69.445801
2018-09-23T00:04:04.466Z,69.244385
2018-09-23T00:05:04.429Z,68.237305
2018-09-23T00:06:04.475Z,68.87207
2018-09-23T00:07:04.480Z,69.683838
2018-09-23T00:08:04.693Z,69.781494
2018-09-23T00:09:04.654Z,69.445801
2018-09-23T00:10:05.624Z,69.580078
2018-09-23T00:11:04.765Z,69.244385
2018-09-23T00:12:05.716Z,69.647217
2018-09-23T00:13:04.822Z,70.153809
2018-09-23T00:14:05.005Z,70.355225
2018-09-23T00:15:04.934Z,70.959473
2018-09-23T00:16:05.044Z,71.264648
2018-09-23T00:17:05.153Z,71.166992
2018-09-23T00:18:05.186Z,70.959473
2018-09-23T00:19:05.447Z,70.458984
2018-09-23T00:20:05.413Z,70.959473
2018-09-23T00:21:05.520Z,71.66748
2018-09-23T00:22:05.547Z,71.063232
2018-09-23T00:23:05.528Z,71.368408
2018-09-23T00:24:05.678Z,71.77124
2018-09-23T00:25:05.734Z,71.868896
2018-09-23T00:26:05.922Z,72.070312
2018-09-23T00:27:05.849Z,72.711182
2018-09-23T00:28:06.093Z,73.217773
2018-09-23T00:29:06.075Z,72.412109
2018-09-23T00:30:06.050Z,71.905518
2018-09-23T00:31:06.043Z,72.210693
2018-09-23T00:32:06.083Z,72.003174
2018-09-23T00:33:06.196Z,72.613525
2018-09-23T00:34:06.361Z,73.620605
2018-09-23T00:35:06.442Z,73.657227
2018-09-23T00:36:06.417Z,73.962402
2018-09-23T00:37:06.530Z,74.163818
2018-09-23T00:38:06.554Z,74.462891
2018-09-23T00:39:06.728Z,74.365234
2018-09-23T00:40:06.635Z,73.754883
2018-09-23T00:41:06.701Z,73.150635
2018-09-23T00:42:06.820Z,73.455811
2018-09-23T00:43:06.893Z,73.217773
2018-09-23T00:44:06.973Z,72.509766
2018-09-23T00:45:06.943Z,72.576904
2018-09-23T00:46:07.139Z,73.016357
2018-09-23T00:47:07.147Z,74.127197
2018-09-23T00:48:07.237Z,73.962402
2018-09-23T00:49:07.359Z,73.150635
2018-09-23T00:50:07.457Z,73.455811
2018-09-23T00:51:07.441Z,73.962402
2018-09-23T00:52:07.574Z,73.657227
2018-09-23T00:53:07.671Z,72.98584
2018-09-23T00:54:07.793Z,73.187256
2018-09-23T00:55:07.947Z,73.284912
2018-09-23T00:56:08.004Z,73.052979
2018-09-23T00:57:08.147Z,72.814941
2018-09-23T00:58:08.235Z,73.620605
2018-09-23T00:59:08.327Z,73.522949
2018-09-23T01:00:08.413Z,73.522949
2018-09-23T01:01:08.501Z,73.657227
2018-09-23T01:02:08.647Z,73.254395
2018-09-23T01:03:08.700Z,72.644043
2018-09-23T01:04:08.864Z,72.106934
2018-09-23T01:05:08.884Z,72.003174
2018-09-23T01:06:08.836Z,73.150635
2018-09-23T01:07:08.957Z,73.254395
2018-09-23T01:08:08.955Z,73.016357
2018-09-23T01:09:09.015Z,73.217773
2018-09-23T01:10:09.186Z,72.912598
2018-09-23T01:11:09.203Z,73.522949
2018-09-23T01:12:09.200Z,73.724365
2018-09-23T01:13:09.270Z,73.419189
2018-09-23T01:14:09.337Z,74.328613
2018-09-23T01:15:09.503Z,74.664307
2018-09-23T01:16:09.545Z,74.768066
2018-09-23T01:17:09.507Z,74.768066
2018-09-23T01:18:09.626Z,74.768066
2018-09-23T01:19:09.633Z,74.871826
2018-09-23T01:20:09.878Z,74.871826
2018-09-23T01:21:09.812Z,74.871826
2018-09-23T01:22:09.945Z,74.365234
2018-09-23T01:23:10.099Z,74.768066
2018-09-23T01:24:10.262Z,74.664307
2018-09-23T01:25:10.410Z,74.969482
2018-09-23T01:26:10.705Z,74.664307
2018-09-23T01:27:11.672Z,74.664307
2018-09-23T01:28:10.773Z,74.261475
2018-09-23T01:29:10.817Z,74.023438
2018-09-23T01:30:10.936Z,74.163818
2018-09-23T01:31:10.915Z,74.664307
2018-09-23T01:32:11.055Z,74.664307
2018-09-23T01:33:11.217Z,74.163818
2018-09-23T01:34:11.198Z,75.170898
2018-09-23T01:35:11.390Z,75.811768
2018-09-23T01:36:11.363Z,76.422119
2018-09-23T01:37:11.406Z,75.78125
2018-09-23T01:38:11.548Z,76.623535
2018-09-23T01:39:11.590Z,76.928711
2018-09-23T01:40:11.649Z,76.281738
2018-09-23T01:41:11.861Z,76.483154
2018-09-23T01:42:11.826Z,76.184082
2018-09-23T01:43:11.853Z,75.170898
2018-09-23T01:44:12.025Z,75.274658
2018-09-23T01:45:12.292Z,75.714111
2018-09-23T01:46:12.311Z,76.220703
2018-09-23T01:47:12.397Z,76.318359
2018-09-23T01:48:12.558Z,76.623535
2018-09-23T01:49:12.574Z,77.026367
2018-09-23T01:50:12.630Z,76.721191
2018-09-23T01:51:12.660Z,76.928711
2018-09-23T01:52:12.747Z,75.512695
2018-09-23T01:53:12.931Z,75.610352
2018-09-23T01:54:12.885Z,75.714111
2018-09-23T01:55:13.101Z,75.408936
2018-09-23T01:56:13.069Z,75.57373
2018-09-23T01:57:13.292Z,75.67749
2018-09-23T01:58:13.281Z,75.073242
2018-09-23T01:59:13.319Z,74.365234
2018-09-23T02:00:13.496Z,74.664307
2018-09-23T02:01:13.569Z,74.328613
2018-09-23T02:02:13.600Z,74.768066
2018-09-23T02:03:13.699Z,74.664307
2018-09-23T02:04:13.738Z,75.372314
2018-09-23T02:05:13.850Z,75.878906
2018-09-23T02:06:13.936Z,74.932861
2018-09-23T02:07:14.015Z,74.432373
2018-09-23T02:08:13.966Z,73.962402
2018-09-23T02:09:14.111Z,74.261475
2018-09-23T02:10:14.181Z,74.768066
2018-09-23T02:11:14.307Z,74.768066
2018-09-23T02:12:14.311Z,75.073242
2018-09-23T02:13:14.398Z,74.768066
2018-09-23T02:14:14.558Z,75.274658
2018-09-23T02:15:14.670Z,74.731445
2018-09-23T02:16:14.836Z,74.56665
2018-09-23T02:17:14.961Z,74.969482
2018-09-23T02:18:15.026Z,74.56665
2018-09-23T02:19:15.141Z,74.664307
2018-09-23T02:20:15.144Z,74.060059
2018-09-23T02:21:15.152Z,73.858643
2018-09-23T02:22:15.242Z,74.328613
2018-09-23T02:23:15.260Z,74.224854
2018-09-23T02:24:15.214Z,74.023438
2018-09-23T02:25:15.352Z,73.822021
2018-09-23T02:26:15.455Z,73.522949
2018-09-23T02:27:15.696Z,73.114014
2018-09-23T02:28:15.711Z,73.724365
2018-09-23T02:29:15.799Z,73.724365
2018-09-23T02:30:15.820Z,74.023438
2018-09-23T02:31:15.962Z,73.925781
2018-09-23T02:32:16.111Z,73.822021
2018-09-23T02:33:16.161Z,74.023438
2018-09-23T02:34:16.302Z,74.090576
2018-09-23T02:35:16.415Z,74.023438
2018-09-23T02:36:16.535Z,74.932861
2018-09-23T02:37:17.688Z,75.134277
2018-09-23T02:38:17.767Z,75.439453
2018-09-23T02:39:16.923Z,73.217773
2018-09-23T02:40:17.081Z,72.912598
2018-09-23T02:41:17.171Z,73.791504
2018-09-23T02:42:17.211Z,73.583984
2018-09-23T02:43:17.178Z,73.486328
2018-09-23T02:44:17.298Z,73.620605
2018-09-23T02:45:17.364Z,74.224854
2018-09-23T02:46:17.443Z,74.328613
2018-09-23T02:47:17.609Z,74.932861
2018-09-23T02:48:17.872Z,75.842285
2018-09-23T02:49:17.866Z,75.543213
2018-09-23T02:50:18.011Z,75.439453
2018-09-23T02:51:18.101Z,75.439453
2018-09-23T02:52:18.242Z,75.946045
2018-09-23T02:53:18.224Z,76.550293
2018-09-23T02:54:18.259Z,76.281738
2018-09-23T02:55:18.230Z,75.744629
2018-09-23T02:56:18.452Z,77.056885
2018-09-23T02:57:19.404Z,77.459717
2018-09-23T02:58:18.497Z,75.543213
2018-09-23T02:59:18.670Z,74.633789
2018-09-23T03:00:18.621Z,75.134277
2018-09-23T03:01:18.681Z,74.395752
2018-09-23T03:02:18.712Z,74.395752
2018-09-23T03:03:18.953Z,74.694824
2018-09-23T03:04:18.957Z,75
2018-09-23T03:05:18.978Z,75
2018-09-23T03:06:19.024Z,75.305176
2018-09-23T03:07:19.281Z,76.11084
2018-09-23T03:08:19.302Z,75.036621
2018-09-23T03:09:19.410Z,74.224854
2018-09-23T03:10:19.539Z,74.493408
2018-09-23T03:11:19.673Z,75
2018-09-23T03:12:19.726Z,75.134277
2018-09-23T03:13:19.747Z,74.328613
2018-09-23T03:14:19.839Z,74.731445
2018-09-23T03:15:19.906Z,74.597168
2018-09-23T03:16:19.993Z,75.201416
2018-09-23T03:17:20.049Z,74.798584
2018-09-23T03:18:20.141Z,75.10376
2018-09-23T03:19:20.155Z,75.402832
2018-09-23T03:20:20.116Z,75
2018-09-23T03:21:21.241Z,75.305176
2018-09-23T03:22:20.333Z,74.395752
2018-09-23T03:23:20.293Z,74.597168
2018-09-23T03:24:20.442Z,74.395752
2018-09-23T03:25:20.556Z,73.791504
2018-09-23T03:26:20.818Z,74.090576
2018-09-23T03:27:20.780Z,73.88916
2018-09-23T03:28:20.830Z,73.99292
2018-09-23T03:29:21.003Z,74.597168
2018-09-23T03:30:20.986Z,74.493408
2018-09-23T03:31:21.096Z,75.10376
2018-09-23T03:32:21.155Z,74.664307
2018-09-23T03:33:21.251Z,74.261475
2018-09-23T03:34:21.383Z,73.449707
2018-09-23T03:35:21.598Z,73.852539
2018-09-23T03:36:21.556Z,73.352051
2018-09-23T03:37:21.726Z,72.949219
2018-09-23T03:38:21.848Z,72.644043
2018-09-23T03:39:22.026Z,72.644043
2018-09-23T03:40:22.111Z,72.949219
2018-09-23T03:41:22.146Z,72.845459
2018-09-23T03:42:22.285Z,73.010254
2018-09-23T03:43:22.446Z,73.754883
2018-09-23T03:44:22.460Z,73.651123
2018-09-23T03:45:23.675Z,73.852539
2018-09-23T03:46:22.586Z,73.956299
2018-09-23T03:47:22.754Z,73.553467
2018-09-23T03:48:22.766Z,73.553467
2018-09-23T03:49:22.904Z,72.949219
2018-09-23T03:50:23.078Z,72.607422
2018-09-23T03:51:23.355Z,72.808838
2018-09-23T03:52:23.247Z,73.150635
2018-09-23T03:53:23.396Z,73.553467
2018-09-23T03:54:23.511Z,72.747803
2018-09-23T03:55:23.577Z,72.509766
2018-09-23T03:56:23.768Z,72.406006
2018-09-23T03:57:23.808Z,73.010254
2018-09-23T03:58:23.933Z,73.31543
2018-09-23T03:59:24.034Z,73.516846
2018-09-23T04:00:24.129Z,73.822021
2018-09-23T04:01:24.319Z,73.31543
2018-09-23T04:02:24.399Z,73.114014
2018-09-23T04:03:24.545Z,72.711182
2018-09-23T04:04:24.643Z,72.607422
2018-09-23T04:05:24.740Z,72.30835
2018-09-23T04:06:24.881Z,72.003174
2018-09-23T04:07:24.868Z,71.905518
2018-09-23T04:08:24.996Z,72.003174
2018-09-23T04:09:25.103Z,72.20459
2018-09-23T04:10:25.225Z,72.20459
2018-09-23T04:11:25.428Z,72.106934
2018-09-23T04:12:25.377Z,72.106934
2018-09-23T04:13:25.398Z,72.375488
2018-09-23T04:14:25.487Z,72.576904
2018-09-23T04:15:25.561Z,74.523926
2018-09-23T04:16:25.606Z,76.141357
2018-09-23T04:17:25.663Z,76.843262
2018-09-23T04:18:25.768Z,74.224854
2018-09-23T04:19:25.860Z,73.010254
2018-09-23T04:20:25.904Z,71.801758
2018-09-23T04:21:25.999Z,70.794678
2018-09-23T04:22:26.048Z,70.690918
2018-09-23T04:23:26.125Z,71.099854
2018-09-23T04:24:26.157Z,70.892334
2018-09-23T04:25:26.239Z,71.19751
2018-09-23T04:26:26.369Z,71.398926
2018-09-23T04:27:26.523Z,72.003174
2018-09-23T04:28:26.538Z,72.808838
2018-09-23T04:29:26.530Z,73.217773
2018-09-23T04:31:26.850Z,74.359131
2018-09-23T04:32:26.801Z,74.761963
2018-09-23T04:33:26.854Z,74.664307
2018-09-23T04:34:26.879Z,74.627686
2018-09-23T04:35:26.991Z,74.523926
2018-09-23T04:36:27.150Z,74.829102
2018-09-23T04:37:27.142Z,75.030518
2018-09-23T04:38:27.262Z,74.829102
2018-09-23T04:39:27.235Z,75.030518
2018-09-23T04:40:27.279Z,75.537109
2018-09-23T04:41:27.394Z,75.335693
2018-09-23T04:42:27.420Z,75.43335
2018-09-23T04:43:27.535Z,75.976562
2018-09-23T04:44:27.648Z,75.976562
2018-09-23T04:45:27.770Z,75.769043
2018-09-23T04:46:27.901Z,75.738525
2018-09-23T04:47:27.938Z,75.738525
2018-09-23T04:48:28.081Z,75.976562
2018-09-23T04:49:28.103Z,76.074219
2018-09-23T04:50:28.244Z,75.939941
2018-09-23T04:51:28.312Z,76.141357
2018-09-23T04:52:28.288Z,76.037598
2018-09-23T04:53:28.634Z,76.983643
2018-09-23T04:54:28.494Z,77.282715
2018-09-23T04:55:28.672Z,77.587891
2018-09-23T04:56:28.760Z,77.789307
2018-09-23T04:57:28.865Z,77.990723
2018-09-23T04:58:28.897Z,77.789307
2018-09-23T04:59:28.925Z,78.094482
2018-09-23T05:00:28.996Z,77.990723
2018-09-23T05:01:29.150Z,77.893066
2018-09-23T05:02:29.024Z,78.192139
2018-09-23T05:03:29.191Z,78.393555
2018-09-23T05:04:29.349Z,78.497314
2018-09-23T05:05:29.215Z,78.192139
2018-09-23T05:06:29.343Z,77.990723
2018-09-23T05:07:29.452Z,78.192139
2018-09-23T05:08:29.537Z,77.893066
2018-09-23T05:09:29.616Z,77.789307
2018-09-23T05:10:29.707Z,78.192139
2018-09-23T05:11:29.759Z,78.295898
2018-09-23T05:12:29.816Z,78.295898
2018-09-23T05:13:29.901Z,78.393555
2018-09-23T05:14:29.957Z,78.430176
2018-09-23T05:15:30.047Z,78.430176
2018-09-23T05:16:30.063Z,78.631592
2018-09-23T05:17:30.202Z,78.631592
2018-09-23T05:18:30.131Z,78.631592
2018-09-23T05:19:30.212Z,78.631592
2018-09-23T05:20:30.275Z,78.33252
2018-09-23T05:21:30.457Z,78.33252
2018-09-23T05:22:30.496Z,77.990723
2018-09-23T05:23:30.550Z,77.893066
2018-09-23T05:24:30.695Z,77.69165
2018-09-23T05:25:30.589Z,77.69165
2018-09-23T05:26:30.733Z,77.490234
2018-09-23T05:27:30.772Z,77.526855
2018-09-23T05:28:30.814Z,77.728271
2018-09-23T05:29:30.865Z,77.282715
2018-09-23T05:30:30.938Z,77.490234
2018-09-23T05:31:30.957Z,77.423096
2018-09-23T05:32:31.013Z,77.624512
2018-09-23T05:33:31.017Z,77.282715
2018-09-23T05:34:31.075Z,77.728271
2018-09-23T05:35:31.174Z,77.587891
2018-09-23T05:36:31.214Z,77.282715
2018-09-23T05:37:31.299Z,77.185059
2018-09-23T05:38:31.317Z,76.983643
2018-09-23T05:39:31.378Z,76.983643
2018-09-23T05:40:31.429Z,77.185059
2018-09-23T05:41:31.550Z,76.879883
2018-09-23T05:42:31.677Z,76.879883
2018-09-23T05:43:31.751Z,76.782227
2018-09-23T05:44:31.848Z,76.544189
2018-09-23T05:45:31.816Z,76.641846
2018-09-23T05:46:31.884Z,76.879883
2018-09-23T05:47:31.937Z,76.782227
2018-09-23T05:48:32.002Z,76.782227
2018-09-23T05:49:33.312Z,76.379395
2018-09-23T05:50:32.237Z,76.580811
2018-09-23T05:51:32.296Z,76.678467
2018-09-23T05:52:32.276Z,76.782227
2018-09-23T05:53:32.366Z,76.678467
2018-09-23T05:54:32.430Z,76.44043
2018-09-23T05:55:32.469Z,76.580811
2018-09-23T05:56:32.668Z,76.580811
2018-09-23T05:57:32.760Z,76.544189
2018-09-23T05:58:32.818Z,76.641846
2018-09-23T06:01:13.728Z,76.379395
2018-09-23T06:01:29.824Z,76.678467
2018-09-23T06:02:29.822Z,76.782227
2018-09-23T06:03:29.869Z,76.275635
2018-09-23T06:05:26.691Z,75.469971
2018-09-23T06:06:26.668Z,75.567627
2018-09-23T06:07:27.703Z,76.879883
2018-09-23T06:29:37.615Z,75.738525
2018-09-23T06:30:37.716Z,75.537109
2018-09-23T06:31:37.792Z,75.634766
2018-09-23T06:32:37.896Z,75.537109
2018-09-23T06:33:37.960Z,75.43335
2018-09-23T06:34:38.108Z,75.030518
2018-09-23T06:35:38.089Z,75.128174
2018-09-23T06:36:38.220Z,75.231934
2018-09-23T06:37:38.321Z,75.030518
2018-09-23T06:38:38.529Z,74.725342
2018-09-23T06:39:38.420Z,75.537109
2018-09-23T06:40:38.488Z,75.836182
2018-09-23T06:41:38.690Z,76.239014
2018-09-23T06:42:38.679Z,76.580811
2018-09-23T06:43:38.741Z,76.782227
2018-09-23T06:44:38.731Z,76.44043
2018-09-23T06:45:38.905Z,76.44043
2018-09-23T06:46:38.951Z,76.342773
2018-09-23T06:47:39.048Z,76.342773
2018-09-23T06:48:39.109Z,76.141357
2018-09-23T06:49:39.335Z,75.836182
2018-09-23T06:50:39.243Z,75.836182
2018-09-23T06:51:39.362Z,75.43335
2018-09-23T06:52:39.424Z,75.231934
2018-09-23T06:53:39.519Z,75.335693
2018-09-23T06:54:39.493Z,75.335693
2018-09-23T06:55:39.626Z,75.128174
2018-09-23T06:57:36.296Z,75.537109
2018-09-23T06:58:36.633Z,75.537109
2018-09-23T06:59:36.442Z,75.128174
2018-09-23T07:00:36.515Z,74.694824
2018-09-23T07:01:36.714Z,74.084473
2018-09-23T07:02:36.590Z,73.7854
2018-09-23T07:26:00.087Z,72.509766
2018-09-23T07:27:00.058Z,72.711182
2018-09-23T07:28:00.299Z,72.509766
2018-09-23T07:29:00.313Z,72.808838
2018-09-23T07:30:00.446Z,72.711182
2018-09-23T07:31:00.421Z,72.607422
2018-09-23T07:32:00.436Z,72.607422
2018-09-23T07:33:00.603Z,72.406006
2018-09-23T07:34:00.609Z,72.808838
2018-09-23T07:35:00.719Z,72.509766
2018-09-23T07:36:00.718Z,72.003174
2018-09-23T07:37:01.910Z,71.502686
2018-09-23T07:38:00.925Z,71.704102
2018-09-23T07:39:01.040Z,71.563721
2018-09-23T07:40:01.279Z,71.66748
2018-09-23T07:41:01.427Z,71.362305
2018-09-23T07:42:01.348Z,71.264648
2018-09-23T07:43:01.481Z,70.76416
2018-09-23T07:44:01.573Z,70.458984
2018-09-23T07:45:01.790Z,70.861816
2018-09-23T07:46:01.757Z,70.76416
2018-09-23T07:47:01.857Z,70.428467
2018-09-23T07:48:02.023Z,70.629883
2018-09-23T07:49:02.211Z,70.123291
2018-09-23T07:50:02.215Z,70.123291
2018-09-23T07:51:02.201Z,70.324707
2018-09-23T07:52:02.271Z,70.227051
2018-09-23T07:53:02.568Z,69.720459
2018-09-23T07:54:02.507Z,68.914795
2018-09-23T07:55:02.639Z,68.414307
2018-09-23T07:56:03.283Z,67.407227
2018-09-23T07:57:02.744Z,67.407227
2018-09-23T07:58:02.775Z,67.30957
2018-09-23T07:59:02.755Z,67.510986
2018-09-23T08:00:03.020Z,67.004395
2018-09-23T08:01:03.075Z,67.810059
2018-09-23T08:02:03.021Z,67.407227
2018-09-23T08:03:03.203Z,67.004395
2018-09-23T08:04:03.305Z,67.004395
2018-09-23T08:05:03.355Z,66.601562
2018-09-23T08:06:03.433Z,66.101074
2018-09-23T08:07:03.568Z,66.503906
2018-09-23T08:08:03.770Z,66.503906
2018-09-23T08:09:03.827Z,66.870117
2018-09-23T08:10:03.986Z,66.973877
2018-09-23T08:11:04.074Z,67.004395
2018-09-23T08:12:04.326Z,66.503906
2018-09-23T08:13:04.580Z,66.571045
2018-09-23T08:14:04.862Z,66.369629
2018-09-23T08:15:05.843Z,66.571045
2018-09-23T08:16:04.841Z,66.571045
2018-09-23T08:17:04.900Z,66.369629
2018-09-23T08:18:04.869Z,66.271973
2018-09-23T08:19:05.035Z,66.668701
2018-09-23T08:20:05.144Z,66.271973
2018-09-23T08:21:05.206Z,66.070557
2018-09-23T08:22:05.300Z,65.667725
2018-09-23T08:23:05.453Z,65.533447
2018-09-23T08:24:05.591Z,65.435791
2018-09-23T08:25:05.642Z,64.929199
2018-09-23T08:26:05.785Z,65.234375
2018-09-23T08:27:05.631Z,65.100098
2018-09-23T08:28:05.799Z,65.100098
2018-09-23T08:29:05.989Z,65.332031
2018-09-23T08:30:06.007Z,65.332031
2018-09-23T08:31:06.116Z,65.533447
2018-09-23T08:32:06.243Z,65.637207
2018-09-23T08:33:06.359Z,65.533447
2018-09-23T08:34:06.466Z,65.936279
2018-09-23T08:35:06.473Z,65.332031
2018-09-23T08:36:06.472Z,65.838623
2018-09-23T08:37:06.628Z,65.637207
2018-09-23T08:38:06.619Z,65.435791
2018-09-23T08:39:06.611Z,65.332031
2018-09-23T08:40:06.839Z,65.405273
2018-09-23T08:41:06.727Z,65.100098
2018-09-23T08:42:06.745Z,64.49585
2018-09-23T08:43:06.773Z,64.801025
2018-09-23T08:44:06.965Z,64.898682
2018-09-23T08:45:06.941Z,65.002441
2018-09-23T08:46:06.965Z,65.600586
2018-09-23T08:47:07.075Z,65.002441
2018-09-23T08:48:07.446Z,64.697266
2018-09-23T08:49:07.217Z,65.002441
2018-09-23T08:50:07.289Z,65.301514
2018-09-23T08:51:07.438Z,65.368652
2018-09-23T08:52:07.423Z,65.570068
2018-09-23T08:53:07.563Z,65.472412
2018-09-23T08:54:07.674Z,65.368652
2018-09-23T08:55:07.746Z,65.673828
2018-09-23T08:56:07.793Z,65.771484
2018-09-23T08:57:07.862Z,65.875244
2018-09-23T08:58:08.007Z,65.17334
2018-09-23T08:59:08.159Z,65.368652
2018-09-23T09:00:08.181Z,65.06958
2018-09-23T09:01:09.357Z,64.666748
2018-09-23T09:02:08.473Z,65.06958
2018-09-23T09:05:05.142Z,65.17334
2018-09-23T09:06:05.263Z,65.270996
2018-09-23T09:07:05.408Z,64.971924
2018-09-23T09:08:05.439Z,64.837646
2018-09-23T09:09:05.512Z,64.941406
2018-09-23T09:10:05.617Z,65.039062
2018-09-23T09:34:22.848Z,66.784668
2018-09-23T09:35:23.004Z,66.986084
2018-09-23T09:36:23.108Z,66.479492
2018-09-23T09:37:23.158Z,66.28418
2018-09-23T09:38:23.245Z,65.74707
2018-09-23T09:39:23.220Z,65.350342
2018-09-23T09:40:23.592Z,65.350342
2018-09-23T09:41:23.323Z,65.545654
2018-09-23T09:42:23.506Z,66.052246
2018-09-23T09:43:23.479Z,65.948486
2018-09-23T09:44:23.486Z,65.74707
2018-09-23T09:45:23.589Z,66.052246
2018-09-23T09:46:23.824Z,66.149902
2018-09-23T09:47:23.889Z,66.052246
2018-09-23T09:48:24.034Z,65.649414
2018-09-23T09:49:24.003Z,65.350342
2018-09-23T09:50:24.200Z,65.045166
2018-09-23T09:52:20.670Z,65.447998
2018-09-23T09:53:20.792Z,65.545654
2018-09-23T09:54:20.859Z,65.545654
2018-09-23T09:55:21.624Z,65.515137
2018-09-23T09:56:20.912Z,65.85083
2018-09-23T09:57:20.926Z,65.74707
2018-09-23T09:58:21.121Z,65.820312
2018-09-23T09:59:21.153Z,65.313721
2018-09-23T10:00:21.279Z,65.515137
2018-09-23T10:01:21.244Z,65.686035
2018-09-23T10:03:59.765Z,65.087891
2018-09-23T10:04:52.670Z,64.520264
2018-09-23T10:05:52.800Z,64.489746
2018-09-23T10:06:52.842Z,64.093018
2018-09-23T10:07:53.026Z,64.190674
2018-09-23T10:08:52.924Z,63.659668
2018-09-23T10:20:37.193Z,64.190674
2018-09-23T10:21:10.039Z,63.262939
2018-09-23T10:22:10.131Z,63.830566
2018-09-23T10:23:10.309Z,64.331055
2018-09-23T10:24:10.406Z,64.959717
2018-09-23T10:26:25.115Z,64.959717
2018-09-23T10:27:25.231Z,64.959717
2018-09-23T10:28:25.395Z,64.862061
2018-09-23T10:29:25.607Z,65.063477
2018-09-23T10:30:25.577Z,64.630127
2018-09-23T10:31:25.767Z,64.630127
2018-09-23T10:32:25.689Z,64.630127
2018-09-23T10:33:25.770Z,64.630127
2018-09-23T10:34:25.884Z,63.598633
2018-09-23T10:35:25.940Z,63.830566
2018-09-23T10:36:26.054Z,64.031982
2018-09-23T10:37:26.233Z,64.001465
2018-09-23T10:38:26.234Z,63.769531
2018-09-23T10:39:26.291Z,63.372803
2018-09-23T10:40:26.439Z,62.670898
2018-09-23T10:41:26.720Z,62.542725
2018-09-23T10:42:26.544Z,62.445068
2018-09-23T10:43:26.648Z,62.042236
2018-09-23T10:44:26.757Z,62.145996
2018-09-23T10:45:26.863Z,61.712646
2018-09-23T10:46:26.898Z,61.2854
2018-09-23T10:47:26.980Z,61.61499
2018-09-23T10:48:27.158Z,61.61499
2018-09-23T10:49:27.257Z,61.712646
2018-09-23T10:50:27.318Z,61.38916
2018-09-23T10:51:27.407Z,61.785889
2018-09-23T10:52:27.451Z,61.584473
2018-09-23T10:53:27.504Z,61.413574
2018-09-23T10:54:27.688Z,60.986328
2018-09-23T10:55:27.729Z,61.38916
2018-09-23T10:56:27.745Z,61.2854
2018-09-23T10:57:27.700Z,61.584473
2018-09-23T10:58:27.777Z,61.584473
2018-09-23T10:59:27.841Z,62.115479
2018-09-23T11:00:27.867Z,62.713623
2018-09-23T11:01:28.008Z,63.238525
2018-09-23T11:02:27.960Z,63.537598
2018-09-23T11:03:28.184Z,63.372803
2018-09-23T11:04:28.207Z,63.07373
2018-09-23T11:05:28.327Z,63.671875
2018-09-23T11:06:28.626Z,63.970947
2018-09-23T11:07:28.690Z,64.501953
2018-09-23T11:08:28.614Z,64.898682
2018-09-23T11:09:28.777Z,64.599609
2018-09-23T11:10:29.040Z,64.569092
2018-09-23T11:11:29.029Z,64.471436
2018-09-23T11:12:29.021Z,62.744141
2018-09-23T11:13:29.113Z,63.140869
2018-09-23T11:14:29.069Z,63.671875
2018-09-23T11:15:30.155Z,63.671875
2018-09-23T11:16:29.261Z,63.269043
2018-09-23T11:17:29.312Z,63.671875
2018-09-23T11:18:29.378Z,63.873291
2018-09-23T11:19:29.637Z,64.068604
2018-09-23T11:20:29.583Z,64.068604
2018-09-23T11:21:29.676Z,63.970947
2018-09-23T11:22:29.800Z,63.970947
2018-09-23T11:23:29.886Z,63.769531
2018-09-23T11:24:29.876Z,63.769531
2018-09-23T11:25:30.961Z,63.970947
2018-09-23T11:26:30.054Z,63.873291
2018-09-23T11:27:30.181Z,63.873291
2018-09-23T11:28:30.237Z,64.471436
2018-09-23T11:29:30.271Z,64.666748
2018-09-23T11:30:30.505Z,63.671875
2018-09-23T11:31:30.521Z,63.470459
2018-09-23T11:32:30.668Z,63.873291
2018-09-23T11:33:30.624Z,64.172363
2018-09-23T11:34:30.635Z,64.471436
2018-09-23T11:35:30.771Z,64.068604
2018-09-23T11:36:30.945Z,63.439941
2018-09-23T11:37:30.951Z,63.739014
2018-09-23T11:38:31.111Z,63.94043
2018-09-23T11:39:31.107Z,63.842773
2018-09-23T11:40:31.259Z,64.208984
2018-09-23T11:41:31.308Z,63.812256
2018-09-23T11:42:31.454Z,63.28125
2018-09-23T11:43:31.502Z,62.884521
2018-09-23T11:45:51.341Z,63.110352
2018-09-23T11:46:51.299Z,62.713623
2018-09-23T11:48:48.437Z,63.110352
2018-09-23T11:50:48.615Z,63.50708
2018-09-23T11:51:48.614Z,62.713623
2018-09-23T11:52:48.696Z,61.914062
2018-09-23T11:53:48.781Z,62.011719
2018-09-23T11:54:49.077Z,62.512207
2018-09-23T11:55:48.990Z,62.512207
2018-09-23T12:17:06.731Z,62.95166
2018-09-23T12:18:06.926Z,62.921143
2018-09-23T12:19:07.019Z,62.524414
2018-09-23T12:20:07.113Z,61.395264
2018-09-23T12:21:07.138Z,60.870361
2018-09-23T12:22:07.261Z,59.649658
2018-09-23T12:23:07.378Z,58.752441
2018-09-23T12:24:07.312Z,57.757568
2018-09-23T12:25:07.391Z,57.434082
2018-09-23T12:26:07.587Z,57.037354
2018-09-23T12:27:07.699Z,57.733154
2018-09-23T12:28:07.855Z,58.227539
2018-09-23T12:29:07.920Z,57.531738
2018-09-23T12:30:08.023Z,57.13501
2018-09-23T12:31:08.122Z,56.768799
2018-09-23T12:32:08.132Z,56.866455
2018-09-23T12:33:08.263Z,57.4646
2018-09-23T12:34:08.268Z,57.263184
2018-09-23T12:35:08.389Z,58.483887
2018-09-23T12:36:08.433Z,58.984375
2018-09-23T12:37:08.535Z,59.082031
2018-09-23T12:38:08.721Z,58.880615
2018-09-23T12:39:08.823Z,58.685303
2018-09-23T12:40:09.051Z,58.483887
2018-09-23T12:41:09.084Z,58.312988
2018-09-23T12:42:09.144Z,58.312988
2018-09-23T12:43:09.303Z,58.612061
2018-09-23T12:44:09.465Z,58.514404
2018-09-23T12:46:28.015Z,58.911133
2018-09-23T12:47:10.158Z,58.013916
2018-09-23T12:48:10.352Z,58.111572
2018-09-23T12:49:10.495Z,58.709717
2018-09-23T12:50:10.585Z,58.911133
2018-09-23T12:51:10.778Z,59.234619
2018-09-23T12:52:10.727Z,59.234619
2018-09-23T12:53:10.894Z,59.533691
2018-09-23T12:54:10.921Z,59.436035
2018-09-23T12:55:11.047Z,59.039307
2018-09-23T12:56:11.117Z,58.740234
2018-09-23T12:57:11.283Z,59.039307
2018-09-23T12:58:11.361Z,59.338379
2018-09-23T12:59:11.308Z,59.637451
2018-09-23T13:00:11.462Z,59.735107
2018-09-23T13:02:11.643Z,59.136963
2018-09-23T13:03:11.794Z,58.94165
2018-09-23T13:04:11.893Z,58.837891
2018-09-23T13:05:11.915Z,58.837891
2018-09-23T13:06:11.983Z,58.709717
2018-09-23T13:07:12.121Z,58.709717
2018-09-23T13:08:12.347Z,58.612061
2018-09-23T13:09:12.318Z,58.813477
2018-09-23T13:10:12.377Z,58.911133
2018-09-23T13:11:12.472Z,58.514404
2018-09-23T13:12:12.637Z,58.709717
2018-09-23T13:13:12.647Z,59.106445
2018-09-23T13:14:12.615Z,59.405518
2018-09-23T13:15:12.752Z,59.509277
2018-09-23T13:16:12.886Z,59.405518
2018-09-23T13:17:12.813Z,59.381104
2018-09-23T13:18:13.067Z,59.277344
2018-09-23T13:19:12.984Z,59.47876